Palmer, Arkansas
Current Conditions -  °F | °C
As of 3:35 AM on Monday 24 Nov 2014 (Local Time) from KSGT Reporting Station
Overcast Overcast  
Wind Chill: 52°   Ceiling: 2800
Heat Index: 52°   Visibility: 10mi
Dew Point: 43°   Wind: 18mph
Humidity: 71%   Direction: 270°W
Pressure: 29.66"   Gusts: 24mph
Location:  34.5919°N, 91.1409°W
Report Text: KSGT 240935Z AUTO 27016G21KT 10SM BKN028 OVC034 11/06 A2966 RMK AO1
Loading
Personal Weather Stations






























Interactive Weather Map New forecast layout! Learn more

10-Day Weather Forecast

Advertisements
Track Severe Weather on mobile